Time;durP1;ratioP1;P1;durP2;ratioP2;P2;SDS_P1;SDS_P2;PMS_P1;PMS_P2;Temp;Humidity;BMP_temperature;BMP_pressure;BME280_temperature;BME280_humidity;BME280_pressure;Samples;Min_cycle;Max_cycle;Signal;HPM_P1;HPM_P2
2021/12/17 00:03:19;;;;;;;1999.90;999.90;;;;;;;7.89;80.33;103230.91;15649725;28;20045;-65
2021/12/17 00:11:00;;;;;;;1999.90;999.90;;;;;;;8.08;79.33;103232.31;15629885;28;20075;-65
2021/12/17 00:18:49;;;;;;;1999.90;999.90;;;;;;;7.76;80.10;103248.75;15624636;28;20044;-65
2021/12/17 00:50:34;;;;;;;1999.90;999.90;;;;;;;7.62;79.72;103232.69;15636483;28;20055;-65
2021/12/17 00:58:09;;;;;;;1999.90;999.90;;;;;;;7.91;78.85;103233.41;15642972;28;20055;-66
2021/12/17 01:05:50;;;;;;;;;;;;;;;7.90;78.77;103246.47;15648620;28;20041;-63
2021/12/17 01:13:31;;;;;;;1999.90;999.90;;;;;;;8.01;77.87;103231.63;15617908;28;19920;-64
2021/12/17 01:38:51;;;;;;;1999.90;999.90;;;;;;;8.13;77.68;103244.59;15632918;28;20045;-63
2021/12/17 01:45:59;;;;;;;1999.90;999.90;;;;;;;8.05;77.60;103241.16;15632965;28;20042;-64
2021/12/17 02:01:39;;;;;;;;;;;;;;;8.04;78.21;103244.22;15638616;28;20553;-64
2021/12/17 02:33:34;;;;;;;1999.90;999.90;;;;;;;8.02;77.44;103204.66;15565753;28;20049;-64
2021/12/17 02:49:35;;;;;;;1999.90;999.90;;;;;;;8.28;75.90;103208.66;15644191;28;20055;-64
2021/12/17 02:57:12;;;;;;;1999.90;999.90;;;;;;;8.23;75.85;103217.78;15648635;28;20045;-65
2021/12/17 03:04:47;;;;;;;1999.90;999.90;;;;;;;8.12;76.62;103224.28;15655692;28;20274;-65
2021/12/17 03:12:31;;;;;;;1999.90;999.90;;;;;;;8.38;75.28;103219.97;15650011;28;20041;-65
2021/12/17 03:28:01;;;;;;;1999.90;999.90;;;;;;;8.19;75.28;103201.84;15619407;28;20037;-65
2021/12/17 03:35:35;;;;;;;1999.90;999.90;;;;;;;8.30;75.21;103217.59;15641590;28;20155;-65
2021/12/17 03:43:12;;;;;;;1999.90;999.90;;;;;;;8.19;75.62;103204.63;15638683;28;20403;-65
2021/12/17 03:50:45;;;;;;;1999.90;999.90;;;;;;;8.42;74.58;103207.22;15588744;28;20059;-65
2021/12/17 03:58:30;;;;;;;1999.90;999.90;;;;;;;8.42;74.69;103200.81;15630164;28;20053;-65
2021/12/17 04:06:09;;;;;;;1999.90;999.90;;;;;;;8.22;75.17;103202.16;15629911;28;20053;-65
2021/12/17 04:14:11;;;;;;;1999.90;999.90;;;;;;;8.44;74.48;103185.56;15632596;28;20503;-63
2021/12/17 04:22:06;;;;;;;1999.90;999.90;;;;;;;8.06;75.80;103178.03;15625295;28;20083;-65
2021/12/17 04:29:43;;;;;;;1999.90;999.90;;;;;;;8.24;75.08;103193.59;15632036;28;20485;-65
2021/12/17 04:37:21;;;;;;;1999.90;999.90;;;;;;;8.24;75.12;103196.38;15620903;28;20395;-65
2021/12/17 04:45:06;;;;;;;1999.90;999.90;;;;;;;8.20;75.17;103200.75;15641296;28;20108;-65
2021/12/17 05:00:34;;;;;;;1999.90;999.90;;;;;;;8.08;75.61;103186.97;15654759;28;20060;-64
2021/12/17 05:08:28;;;;;;;1999.90;999.90;;;;;;;8.06;75.68;103192.78;15670109;28;20077;-65
2021/12/17 05:23:56;;;;;;;1999.90;999.90;;;;;;;8.35;74.67;103199.06;15675980;28;20045;-65
2021/12/17 05:31:30;;;;;;;1999.90;999.90;;;;;;;8.35;74.54;103201.84;15652759;28;20119;-64
2021/12/17 05:39:20;;;;;;;1999.90;999.90;;;;;;;8.03;75.85;103198.03;15670713;28;20516;-65
2021/12/17 05:47:13;;;;;;;1999.90;999.90;;;;;;;8.02;76.00;103224.13;15671492;28;20053;-65
2021/12/17 05:54:49;;;;;;;1999.90;999.90;;;;;;;8.09;75.38;103216.47;15667830;28;20041;-65
2021/12/17 06:02:23;;;;;;;1999.90;999.90;;;;;;;7.96;75.90;103214.03;15667328;28;20048;-63
2021/12/17 06:10:03;;;;;;;1999.90;999.90;;;;;;;8.12;75.38;103218.72;15625359;28;20072;-66
2021/12/17 06:17:43;;;;;;;1999.90;999.90;;;;;;;8.16;75.36;103214.34;15606718;28;20081;-66
2021/12/17 06:25:22;;;;;;;1999.90;999.90;;;;;;;7.91;75.94;103228.69;15650918;28;20049;-63
2021/12/17 06:33:00;;;;;;;1999.90;999.90;;;;;;;8.37;75.04;103232.19;15636553;28;20065;-65
2021/12/17 06:40:38;;;;;;;1999.90;999.90;;;;;;;8.16;75.19;103231.03;15666820;28;20071;-65
2021/12/17 06:48:14;;;;;;;1999.90;999.90;;;;;;;8.20;74.91;103234.13;15599951;28;20045;-66
2021/12/17 07:29:02;;;;;;;1999.90;999.90;;;;;;;7.84;76.26;103228.03;15663691;28;20053;-65
2021/12/17 07:38:36;;;;;;;1999.90;999.90;;;;;;;7.94;76.19;103231.00;15662715;28;20063;-66
2021/12/17 07:45:01;;;;;;;1999.90;999.90;;;;;;;7.74;76.17;103233.44;15645892;28;20033;-66
2021/12/17 07:52:48;;;;;;;1999.90;999.90;;;;;;;8.13;75.16;103248.25;15662530;28;20080;-64
2021/12/17 08:08:32;;;;;;;1999.90;999.90;;;;;;;7.90;75.99;103226.16;15662097;28;20057;-65
2021/12/17 08:16:31;;;;;;;1999.90;999.90;;;;;;;8.21;74.64;103219.13;15667030;28;20083;-65
2021/12/17 08:24:48;;;;;;;1999.90;999.90;;;;;;;8.24;74.78;103226.97;15656824;28;20064;-64
2021/12/17 08:32:30;;;;;;;1999.90;999.90;;;;;;;8.39;74.45;103216.91;15656683;28;20055;-66
2021/12/17 08:40:11;;;;;;;1999.90;999.90;;;;;;;8.20;75.15;103190.47;15651965;28;20288;-65
2021/12/17 08:47:52;;;;;;;1999.90;999.90;;;;;;;8.44;74.49;103212.50;15676103;28;20106;-65
2021/12/17 08:55:42;;;;;;;1999.90;999.90;;;;;;;8.20;75.15;103215.50;15647168;28;20046;-65
2021/12/17 09:03:32;;;;;;;1999.90;999.90;;;;;;;8.51;74.05;103227.94;15609698;28;20087;-65
2021/12/17 09:11:18;;;;;;;1999.90;999.90;;;;;;;8.62;73.48;103234.47;15593468;28;20038;-64
2021/12/17 09:19:11;;;;;;;1999.90;999.90;;;;;;;8.78;72.90;103243.88;15591757;28;20071;-65
2021/12/17 09:27:14;;;;;;;1999.90;999.90;;;;;;;8.71;73.18;103263.53;15661032;28;20133;-64
2021/12/17 09:35:14;;;;;;;1999.90;999.90;;;;;;;8.72;72.58;103270.78;15683592;28;20056;-65
2021/12/17 09:42:50;;;;;;;1999.90;999.90;;;;;;;8.87;72.11;103270.16;15686568;28;20052;-64
2021/12/17 09:50:23;;;;;;;1999.90;999.90;;;;;;;8.81;72.98;103262.81;15685991;28;20045;-64
2021/12/17 09:57:57;;;;;;;1999.90;999.90;;;;;;;9.15;71.29;103261.56;15669319;28;20049;-64
2021/12/17 10:05:32;;;;;;;1999.90;999.90;;;;;;;9.01;71.58;103273.38;15684588;28;20044;-64
2021/12/17 10:13:12;;;;;;;1999.90;999.90;;;;;;;9.25;71.11;103256.09;15666731;28;20053;-64
2021/12/17 10:20:55;;;;;;;1999.90;999.90;;;;;;;8.93;72.21;103269.94;15666607;28;20037;-67
2021/12/17 10:28:31;;;;;;;1999.90;999.90;;;;;;;8.99;71.94;103276.41;15684299;28;20446;-64
2021/12/17 10:36:36;;;;;;;1999.90;999.90;;;;;;;9.42;70.94;103275.50;15628992;28;20395;-65
2021/12/17 10:44:22;;;;;;;1999.90;999.90;;;;;;;9.32;71.64;103275.41;15604149;28;20681;-64
2021/12/17 10:52:06;;;;;;;1999.90;999.90;;;;;;;9.51;70.74;103259.16;15745350;22;20054;-57
2021/12/17 10:59:46;;;;;;;;;;;;;;;9.78;70.86;103268.28;15784253;28;20127;-57
2021/12/17 11:07:19;;;;;;;1999.90;999.90;;;;;;;9.35;70.47;103260.09;15720714;28;19928;-59
2021/12/17 11:14:54;;;;;;;1999.90;999.90;;;;;;;9.80;70.11;103268.06;15644518;28;20053;-54
2021/12/17 11:22:29;;;;;;;1999.90;999.90;;;;;;;9.63;70.44;103264.53;15677432;28;20227;-57
2021/12/17 11:30:05;;;;;;;1999.90;999.90;;;;;;;9.79;69.32;103261.59;15657282;28;20513;-58
2021/12/17 11:37:41;;;;;;;1999.90;999.90;;;;;;;9.68;69.47;103262.63;15687334;28;20050;-58
2021/12/17 11:45:26;;;;;;;1999.90;999.90;;;;;;;9.68;69.71;103271.00;15736310;28;20048;-57
2021/12/17 11:53:18;;;;;;;1999.90;999.90;;;;;;;9.66;70.24;103273.22;15678141;28;20507;-56
2021/12/17 12:00:52;;;;;;;1999.90;999.90;;;;;;;9.82;69.10;103271.41;15684367;28;20451;-59
2021/12/17 12:08:31;;;;;;;1999.90;999.90;;;;;;;9.89;69.19;103279.53;15717665;28;20068;-60
2021/12/17 12:16:07;;;;;;;1999.90;999.90;;;;;;;9.97;68.32;103268.72;15655467;28;20037;-57
2021/12/17 12:23:52;;;;;;;1999.90;999.90;;;;;;;10.13;68.37;103280.84;15661899;28;20413;-56
2021/12/17 12:31:54;;;;;;;1999.90;999.90;;;;;;;10.06;68.13;103278.28;15700587;28;20094;-57
2021/12/17 12:39:30;;;;;;;1999.90;999.90;;;;;;;9.86;68.53;103266.97;15734429;28;20060;-57
2021/12/17 12:47:04;;;;;;;1999.90;999.90;;;;;;;9.97;68.62;103277.09;15715960;28;20040;-59
2021/12/17 12:54:39;;;;;;;1999.90;999.90;;;;;;;10.04;67.87;103263.78;15699448;28;20090;-59
2021/12/17 13:02:14;;;;;;;1999.90;999.90;;;;;;;9.98;67.92;103270.41;15695394;28;20041;-57
2021/12/17 13:09:46;;;;;;;1999.90;999.90;;;;;;;9.83;67.98;103264.72;15715217;28;20041;-58
2021/12/17 13:17:51;;;;;;;1999.90;999.90;;;;;;;9.90;67.69;103254.19;15720554;28;20052;-57
2021/12/17 13:25:25;;;;;;;1999.90;999.90;;;;;;;9.88;67.38;103256.38;15694855;28;20050;-56
2021/12/17 13:32:59;;;;;;;1999.90;999.90;;;;;;;9.64;66.94;103266.22;15724984;28;20614;-57
2021/12/17 13:40:36;;;;;;;1999.90;999.90;;;;;;;9.72;67.79;103254.59;15699733;28;20040;-57
2021/12/17 13:48:14;;;;;;;1999.90;999.90;;;;;;;9.89;66.87;103238.53;15682050;28;20052;-56
2021/12/17 13:55:50;;;;;;;1999.90;999.90;;;;;;;9.68;66.88;103243.09;15709165;28;20040;-57
2021/12/17 14:03:27;;;;;;;1999.90;999.90;;;;;;;9.65;68.01;103231.66;15723082;28;20128;-59
2021/12/17 14:11:00;;;;;;;1999.90;999.90;;;;;;;9.62;68.31;103271.22;15704560;28;20044;-59
2021/12/17 14:18:35;;;;;;;1999.90;999.90;;;;;;;9.66;68.12;103275.16;15738791;28;20110;-56
2021/12/17 14:26:09;;;;;;;1999.90;999.90;;;;;;;9.58;68.12;103275.63;15723455;28;20037;-57
2021/12/17 14:33:50;;;;;;;1999.90;999.90;;;;;;;9.65;68.07;103291.03;15644888;28;20076;-55
2021/12/17 14:41:30;;;;;;;1999.90;999.90;;;;;;;9.54;68.41;103289.28;15663682;28;20045;-55
2021/12/17 14:49:19;;;;;;;1999.90;999.90;;;;;;;9.36;68.00;103275.69;15721619;28;20061;-55
2021/12/17 15:04:43;;;;;;;1999.90;999.90;;;;;;;9.32;68.38;103280.13;15738268;28;20523;-57
2021/12/17 15:12:37;;;;;;;1999.90;999.90;;;;;;;9.31;68.12;103275.66;15703609;28;20041;-53
2021/12/17 15:20:13;;;;;;;1999.90;999.90;;;;;;;9.57;67.82;103285.09;15677998;28;20045;-53
2021/12/17 15:27:47;;;;;;;1999.90;999.90;;;;;;;9.33;67.71;103288.22;15658258;28;20074;-57
2021/12/17 15:35:23;;;;;;;1999.90;999.90;;;;;;;9.38;67.92;103279.94;15674469;28;20492;-54
2021/12/17 15:43:02;;;;;;;1999.90;999.90;;;;;;;9.29;67.79;103292.66;15656368;28;20504;-57
2021/12/17 15:50:38;;;;;;;1999.90;999.90;;;;;;;9.28;67.75;103290.13;15674747;28;20468;-55
2021/12/17 15:58:11;;;;;;;1999.90;999.90;;;;;;;8.98;68.27;103285.03;15663848;28;20129;-57
2021/12/17 16:05:45;;;;;;;1999.90;999.90;;;;;;;9.14;67.85;103284.09;15677535;28;20049;-55
2021/12/17 16:21:11;;;;;;;1999.90;999.90;;;;;;;9.30;67.52;103277.59;15654323;28;20521;-58
2021/12/17 16:28:47;;;;;;;1999.90;999.90;;;;;;;9.28;67.25;103274.25;15673014;28;20073;-57
2021/12/17 16:36:21;;;;;;;1999.90;999.90;;;;;;;9.16;67.63;103293.03;15675509;28;20061;-56
2021/12/17 16:44:00;;;;;;;1999.90;999.90;;;;;;;9.21;67.84;103291.16;15707836;28;20052;-54
2021/12/17 16:51:34;;;;;;;1999.90;999.90;;;;;;;9.18;67.73;103305.63;15768833;22;20502;-65
2021/12/17 16:59:07;;;;;;;1999.90;999.90;;;;;;;9.03;68.22;103296.22;15758242;28;20094;-64
2021/12/17 17:06:42;;;;;;;1999.90;999.90;;;;;;;9.31;67.65;103315.50;15716828;28;20147;-66
2021/12/17 17:14:17;;;;;;;1999.90;999.90;;;;;;;9.08;68.74;103307.44;15693966;28;20308;-64
2021/12/17 17:21:51;;;;;;;1999.90;999.90;;;;;;;9.24;67.74;103312.09;15670271;28;20045;-64
2021/12/17 17:29:24;;;;;;;1999.90;999.90;;;;;;;9.21;67.96;103304.25;15736672;28;20063;-64
2021/12/17 17:37:01;;;;;;;1999.90;999.90;;;;;;;9.12;68.70;103301.09;15775871;28;20048;-64
2021/12/17 17:44:34;;;;;;;1999.90;999.90;;;;;;;8.92;69.40;103289.69;15750367;28;20416;-64
2021/12/17 17:52:10;;;;;;;1999.90;999.90;;;;;;;8.99;69.40;103298.72;15727197;28;20052;-63
2021/12/17 17:59:46;;;;;;;1999.90;999.90;;;;;;;8.68;69.63;103303.03;15670324;28;20052;-64
2021/12/17 18:07:20;;;;;;;1999.90;999.90;;;;;;;8.68;69.67;103289.97;15715653;28;20051;-64
2021/12/17 18:14:53;;;;;;;1999.90;999.90;;;;;;;8.48;70.07;103302.75;15715131;28;20105;-67
2021/12/17 18:22:27;;;;;;;1999.90;999.90;;;;;;;8.59;69.94;103299.00;15740137;28;20131;-62
2021/12/17 18:29:59;;;;;;;1999.90;999.90;;;;;;;8.67;69.35;103296.63;15676688;28;20057;-66
2021/12/17 18:37:37;;;;;;;1999.90;999.90;;;;;;;8.61;69.71;103296.81;15706487;28;20037;-65
2021/12/17 18:45:10;;;;;;;1999.90;999.90;;;;;;;8.52;70.00;103288.06;15720966;28;20048;-64
2021/12/17 18:52:44;;;;;;;1999.90;999.90;;;;;;;8.73;69.63;103289.16;15717890;28;20681;-65
2021/12/17 19:00:25;;;;;;;1999.90;999.90;;;;;;;8.88;69.37;103275.47;15721970;28;20059;-64
2021/12/17 19:08:02;;;;;;;1999.90;999.90;;;;;;;8.88;69.42;103288.53;15736700;28;20068;-63
2021/12/17 19:15:36;;;;;;;1999.90;999.90;;;;;;;8.80;70.27;103278.69;15704792;28;20508;-65
2021/12/17 19:23:11;;;;;;;1999.90;999.90;;;;;;;8.74;70.70;103262.16;15713775;28;20041;-63
2021/12/17 19:30:47;;;;;;;1999.90;999.90;;;;;;;8.50;71.69;103275.50;15695769;28;20033;-64
2021/12/17 19:38:22;;;;;;;1999.90;999.90;;;;;;;8.65;71.21;103268.22;15727899;28;20573;-64
2021/12/17 19:46:01;;;;;;;1999.90;999.90;;;;;;;8.66;70.99;103297.72;15686063;28;20105;-65
2021/12/17 19:53:35;;;;;;;1999.90;999.90;;;;;;;8.62;71.72;103277.06;15689084;28;20132;-65
2021/12/17 20:01:08;;;;;;;1999.90;999.90;;;;;;;8.73;70.49;103274.41;15715660;28;20504;-63
2021/12/17 20:08:42;;;;;;;1999.90;999.90;;;;;;;8.80;70.99;103277.84;15708731;28;20393;-61
2021/12/17 20:16:16;;;;;;;1999.90;999.90;;;;;;;8.82;70.77;103284.84;15715778;28;20052;-64
2021/12/17 20:23:50;;;;;;;1999.90;999.90;;;;;;;8.71;70.97;103280.25;15712035;28;20056;-65
2021/12/17 20:31:25;;;;;;;1999.90;999.90;;;;;;;8.51;71.83;103291.94;15736886;28;20052;-66
2021/12/17 20:39:00;;;;;;;1999.90;999.90;;;;;;;8.59;71.83;103282.31;15705163;28;20462;-64
2021/12/17 20:46:34;;;;;;;1999.90;999.90;;;;;;;8.52;72.54;103290.84;15705618;28;20037;-66
2021/12/17 20:54:09;;;;;;;1999.90;999.90;;;;;;;8.66;72.21;103297.72;15734024;28;20045;-64
2021/12/17 21:01:49;;;;;;;1999.90;999.90;;;;;;;8.55;72.60;103297.84;15745669;28;20044;-63
2021/12/17 21:09:23;;;;;;;1999.90;999.90;;;;;;;8.58;71.97;103291.75;15770760;28;20041;-64
2021/12/17 21:17:00;;;;;;;1999.90;999.90;;;;;;;8.60;72.50;103311.81;15766674;28;20066;-65
2021/12/17 21:24:37;;;;;;;1999.90;999.90;;;;;;;8.46;72.83;103305.78;15712349;28;20048;-64
2021/12/17 21:32:21;;;;;;;1999.90;999.90;;;;;;;8.52;72.95;103309.47;15724294;28;20101;-62
2021/12/17 21:39:56;;;;;;;1999.90;999.90;;;;;;;8.78;72.21;103302.34;15712650;28;20059;-63
2021/12/17 21:47:30;;;;;;;1999.90;999.90;;;;;;;8.51;73.06;103300.28;15700822;28;20402;-66
2021/12/17 21:55:05;;;;;;;1999.90;999.90;;;;;;;8.26;73.90;103294.31;15696791;28;20101;-64
2021/12/17 22:02:39;;;;;;;1999.90;999.90;;;;;;;8.31;72.66;103298.00;15705230;28;20438;-62
2021/12/17 22:10:13;;;;;;;;;;;;;;;8.37;72.27;103296.19;15717554;28;20048;-62
2021/12/17 22:17:56;;;;;;;;;;;;;;;8.02;71.79;103311.22;15703763;28;20432;-62
2021/12/17 22:25:33;;;;;;;1999.90;999.90;;;;;;;7.89;72.33;103314.31;15709554;28;19964;-65
2021/12/17 22:33:06;;;;;;;1999.90;999.90;;;;;;;7.96;72.37;103323.34;15684406;28;20433;-63
2021/12/17 22:40:50;;;;;;;1999.90;999.90;;;;;;;7.86;73.42;103319.53;15682341;28;20131;-65
2021/12/17 22:48:23;;;;;;;1999.90;999.90;;;;;;;8.17;72.85;103323.66;15691753;28;20055;-64
2021/12/17 22:55:58;;;;;;;1999.90;999.90;;;;;;;8.45;71.35;103331.09;15711358;28;20045;-60
2021/12/17 23:03:35;;;;;;;1999.90;999.90;;;;;;;8.44;71.72;103326.59;15715998;28;20044;-61
2021/12/17 23:11:22;;;;;;;1999.90;999.90;;;;;;;7.91;73.72;103325.16;15710235;28;20501;-62
2021/12/17 23:18:54;;;;;;;1999.90;999.90;;;;;;;8.43;71.35;103322.13;15682481;28;20385;-64
2021/12/17 23:26:29;;;;;;;1999.90;999.90;;;;;;;8.63;70.93;103317.72;15734361;28;20082;-61
2021/12/17 23:34:07;;;;;;;1999.90;999.90;;;;;;;8.34;72.45;103327.28;15681368;28;20075;-62
2021/12/17 23:41:41;;;;;;;1999.90;999.90;;;;;;;8.67;71.24;103326.41;15700149;28;20055;-60
2021/12/17 23:49:15;;;;;;;1999.90;999.90;;;;;;;8.61;71.28;103328.25;15678476;28;20047;-62
2021/12/17 23:56:49;;;;;;;1999.90;999.90;;;;;;;8.60;70.80;103315.44;15679504;28;20041;-63
